createdAt,value
2022-10-31T00:02:46.453Z,18.77
2022-10-31T00:08:56.471Z,18.92
2022-10-31T00:14:58.324Z,14.48
2022-10-31T00:21:02.072Z,21.23
2022-10-31T00:27:03.965Z,15.52
2022-10-31T00:33:06.348Z,14.93
2022-10-31T00:39:08.269Z,15.75
2022-10-31T00:45:11.311Z,10.00
2022-10-31T00:51:15.202Z,14.27
2022-10-31T00:57:17.226Z,12.68
2022-10-31T01:03:19.180Z,20.70
2022-10-31T01:09:21.046Z,14.68
2022-10-31T01:15:24.198Z,19.00
2022-10-31T01:21:28.589Z,21.75
2022-10-31T01:27:33.557Z,16.52
2022-10-31T01:33:36.530Z,17.30
2022-10-31T01:39:38.489Z,17.60
2022-10-31T01:45:41.156Z,15.68
2022-10-31T01:52:10.681Z,13.65
2022-10-31T02:04:24.308Z,12.73
2022-10-31T02:10:26.755Z,16.63
2022-10-31T02:16:30.895Z,17.95
2022-10-31T02:22:54.886Z,15.95
2022-10-31T02:28:56.795Z,15.32
2022-10-31T02:34:58.655Z,14.80
2022-10-31T02:41:38.713Z,16.65
2022-10-31T02:47:49.781Z,20.83
2022-10-31T02:53:51.736Z,11.73
2022-10-31T02:59:59.917Z,14.38
2022-10-31T03:06:15.838Z,11.88
2022-10-31T03:12:29.341Z,17.20
2022-10-31T03:18:35.712Z,13.25
2022-10-31T03:24:40.163Z,11.65
2022-10-31T03:30:45.075Z,15.38
2022-10-31T03:36:53.803Z,14.60
2022-10-31T03:43:03.717Z,14.43
2022-10-31T03:49:07.474Z,15.57
2022-10-31T03:55:16.879Z,14.68
2022-10-31T04:01:20.570Z,14.40
2022-10-31T04:07:26.049Z,15.30
2022-10-31T04:13:30.566Z,15.52
2022-10-31T04:19:45.335Z,14.67
2022-10-31T04:25:48.057Z,16.13
2022-10-31T04:31:50.027Z,14.15
2022-10-31T04:37:52.793Z,10.65
2022-10-31T04:43:55.194Z,16.95
2022-10-31T04:49:57.086Z,14.38
2022-10-31T04:56:00.844Z,15.68
2022-10-31T05:02:10.976Z,16.85
2022-10-31T05:08:32.015Z,15.10
2022-10-31T05:14:34.987Z,8.13
2022-10-31T05:20:55.527Z,8.90
2022-10-31T05:27:01.788Z,9.38
2022-10-31T05:33:04.063Z,13.00
2022-10-31T05:39:24.250Z,16.52
2022-10-31T05:45:30.920Z,14.32
2022-10-31T05:51:36.155Z,19.08
2022-10-31T05:57:39.413Z,14.48
2022-10-31T06:03:41.262Z,17.67
2022-10-31T06:09:44.885Z,17.80
2022-10-31T06:15:47.087Z,18.58
2022-10-31T06:21:49.197Z,18.35
2022-10-31T06:27:51.493Z,27.73
2022-10-31T06:33:54.968Z,22.25
2022-10-31T06:39:57.047Z,11.60
2022-10-31T06:46:02.719Z,21.67
2022-10-31T06:52:15.930Z,19.05
2022-10-31T06:58:17.898Z,18.17
2022-10-31T07:04:21.903Z,20.15
2022-10-31T07:10:25.339Z,19.02
2022-10-31T07:16:33.240Z,26.23
2022-10-31T07:22:36.790Z,22.67
2022-10-31T07:28:40.874Z,24.92
2022-10-31T07:34:47.363Z,17.60
2022-10-31T07:41:04.060Z,17.60
2022-10-31T07:47:08.193Z,19.23
2022-10-31T07:53:33.064Z,20.30
2022-10-31T07:59:45.401Z,18.13
2022-10-31T08:05:48.591Z,16.35
2022-10-31T08:12:22.960Z,13.60
2022-10-31T08:18:25.034Z,17.40
2022-10-31T08:24:27.786Z,22.42
2022-10-31T08:30:33.459Z,11.93
2022-10-31T08:37:01.256Z,16.85
2022-10-31T08:43:16.069Z,16.38
2022-10-31T08:49:18.133Z,13.07
2022-10-31T08:55:20.383Z,14.25
2022-10-31T09:01:25.079Z,12.45
2022-10-31T09:07:27.425Z,15.50
2022-10-31T09:13:29.905Z,16.48
2022-10-31T09:19:50.494Z,17.15
2022-10-31T09:25:54.206Z,16.33
2022-10-31T09:32:15.387Z,15.90
2022-10-31T09:38:22.926Z,22.52
2022-10-31T09:44:59.146Z,19.85
2022-10-31T09:51:39.373Z,21.83
2022-10-31T09:57:56.679Z,21.10
2022-10-31T10:04:47.689Z,19.90
2022-10-31T10:11:06.084Z,18.33
2022-10-31T10:17:19.771Z,24.13
2022-10-31T10:23:35.223Z,26.80
2022-10-31T10:29:44.901Z,24.85
2022-10-31T10:36:00.649Z,30.42
2022-10-31T10:42:27.215Z,25.15
2022-10-31T10:48:44.055Z,24.52
2022-10-31T10:54:54.988Z,32.22
2022-10-31T11:00:57.506Z,32.28
2022-10-31T11:07:05.209Z,33.40
2022-10-31T11:13:22.472Z,28.65
2022-10-31T11:19:27.972Z,33.20
2022-10-31T11:25:30.263Z,31.02
2022-10-31T11:31:33.989Z,33.00
2022-10-31T11:37:41.756Z,27.90
2022-10-31T11:43:57.984Z,25.15
2022-10-31T11:50:09.474Z,27.75
2022-10-31T11:56:16.833Z,34.75
2022-10-31T12:02:20.982Z,24.10
2022-10-31T12:08:30.938Z,27.35
2022-10-31T12:14:42.761Z,26.40
2022-10-31T12:21:18.836Z,27.95
2022-10-31T12:27:52.418Z,31.00
2022-10-31T12:33:57.358Z,27.50
2022-10-31T12:40:21.223Z,27.40
2022-10-31T12:46:54.620Z,33.38
2022-10-31T12:53:10.971Z,32.33
2022-10-31T12:59:18.868Z,37.08
2022-10-31T13:05:28.407Z,35.28
2022-10-31T13:11:36.511Z,34.95
2022-10-31T13:25:14.808Z,34.50
2022-10-31T13:31:16.692Z,30.95
2022-10-31T13:37:40.400Z,32.78
2022-10-31T13:44:25.163Z,40.35
2022-10-31T13:58:30.943Z,31.52
2022-10-31T14:04:51.250Z,27.10
2022-10-31T14:10:55.787Z,38.10
2022-10-31T14:16:59.040Z,32.83
2022-10-31T14:23:31.542Z,27.80
2022-10-31T14:29:36.738Z,30.10
2022-10-31T14:36:08.156Z,26.48
2022-10-31T14:57:41.047Z,24.65
2022-10-31T15:04:10.070Z,28.25
2022-10-31T15:10:23.106Z,28.67
2022-10-31T15:16:37.613Z,19.05
2022-10-31T15:22:41.056Z,30.17
2022-10-31T15:28:43.268Z,25.65
2022-10-31T15:34:45.764Z,25.20
2022-10-31T15:41:25.269Z,21.33
2022-10-31T15:47:28.236Z,24.27
2022-10-31T15:53:53.522Z,24.05
2022-10-31T15:59:56.377Z,26.20
2022-10-31T16:06:01.636Z,25.20
2022-10-31T16:12:04.876Z,26.90
2022-10-31T16:18:16.740Z,25.90
2022-10-31T16:24:27.622Z,28.85
2022-10-31T16:30:50.504Z,27.42
2022-10-31T16:36:52.608Z,35.25
2022-10-31T16:42:54.751Z,36.35
2022-10-31T16:48:56.754Z,34.65
2022-10-31T16:54:59.318Z,33.78
2022-10-31T17:01:02.922Z,34.85
2022-10-31T17:07:04.911Z,37.33
2022-10-31T17:13:10.706Z,29.13
2022-10-31T17:19:12.850Z,35.08
2022-10-31T17:25:20.166Z,30.38
2022-10-31T17:31:26.580Z,40.77
2022-10-31T17:37:28.438Z,43.25
2022-10-31T17:43:30.354Z,47.70
2022-10-31T17:49:32.201Z,47.95
2022-10-31T17:55:37.037Z,53.80
2022-10-31T18:01:39.587Z,45.47
2022-10-31T18:07:41.657Z,48.65
2022-10-31T18:13:44.219Z,51.72
2022-10-31T18:19:46.198Z,49.65
2022-10-31T18:25:48.062Z,51.50
2022-10-31T18:31:51.423Z,45.42
2022-10-31T18:37:53.338Z,52.47
2022-10-31T18:43:59.878Z,52.83
2022-10-31T18:50:01.757Z,55.25
2022-10-31T18:56:08.897Z,52.00
2022-10-31T19:02:15.145Z,61.27
2022-10-31T19:08:17.094Z,56.47
2022-10-31T19:14:19.062Z,60.20
2022-10-31T19:20:21.151Z,59.33
2022-10-31T19:26:24.919Z,57.28
2022-10-31T19:32:27.214Z,59.35
2022-10-31T19:38:29.710Z,58.63
2022-10-31T19:44:33.540Z,57.97
2022-10-31T19:50:35.412Z,50.78
2022-10-31T19:56:37.332Z,56.97
2022-10-31T20:02:39.235Z,56.50
2022-10-31T20:08:41.087Z,61.72
2022-10-31T20:14:42.949Z,49.40
2022-10-31T20:20:44.897Z,50.55
2022-10-31T20:26:46.819Z,50.67
2022-10-31T20:32:50.144Z,55.47
2022-10-31T20:38:53.136Z,56.88
2022-10-31T20:44:54.948Z,65.35
2022-10-31T20:51:01.390Z,73.03
2022-10-31T20:57:03.433Z,74.03
2022-10-31T21:03:05.359Z,76.78
2022-10-31T21:09:08.037Z,70.72
2022-10-31T21:15:11.405Z,83.28
2022-10-31T21:27:57.379Z,92.07
2022-10-31T21:33:59.287Z,95.97
2022-10-31T21:40:01.267Z,105.47
2022-10-31T21:46:11.933Z,102.40
2022-10-31T21:52:13.884Z,107.25
2022-10-31T22:06:00.537Z,87.85
2022-10-31T22:12:23.283Z,87.10
2022-10-31T22:18:31.432Z,92.95
2022-10-31T22:24:37.418Z,90.57
2022-10-31T22:30:50.895Z,90.30
2022-10-31T22:36:55.285Z,89.03
2022-10-31T22:42:57.208Z,99.15
2022-10-31T22:49:05.574Z,99.32
2022-10-31T22:55:08.033Z,98.20
2022-10-31T23:01:12.122Z,118.35
2022-10-31T23:07:14.827Z,121.47
2022-10-31T23:13:36.507Z,128.00
2022-10-31T23:19:38.436Z,145.93
2022-10-31T23:25:58.785Z,156.93
2022-10-31T23:32:00.985Z,146.73
2022-10-31T23:38:03.142Z,151.80
2022-10-31T23:44:05.434Z,154.65
2022-10-31T23:50:08.026Z,150.60
2022-10-31T23:56:09.975Z,154.27
